createdAt,value
2019-03-28T00:00:34.029Z,0.00
2019-03-28T00:01:33.973Z,0.00
2019-03-28T00:02:33.982Z,0.00
2019-03-28T00:03:33.946Z,0.00
2019-03-28T00:04:33.951Z,0.00
2019-03-28T00:05:33.962Z,0.00
2019-03-28T00:06:33.920Z,0.00
2019-03-28T00:07:33.906Z,0.00
2019-03-28T00:08:33.907Z,0.00
2019-03-28T00:09:33.885Z,0.00
2019-03-28T00:10:33.923Z,0.00
2019-03-28T00:11:33.883Z,0.00
2019-03-28T00:12:33.866Z,0.00
2019-03-28T00:13:33.849Z,0.00
2019-03-28T00:14:33.839Z,0.00
2019-03-28T00:15:33.820Z,0.00
2019-03-28T00:16:33.830Z,0.00
2019-03-28T00:17:33.808Z,0.00
2019-03-28T00:18:33.790Z,0.00
2019-03-28T00:19:33.770Z,0.00
2019-03-28T00:20:33.756Z,0.00
2019-03-28T00:21:33.773Z,0.00
2019-03-28T00:22:33.740Z,0.00
2019-03-28T00:23:33.736Z,0.00
2019-03-28T00:24:33.741Z,0.00
2019-03-28T00:25:33.722Z,0.00
2019-03-28T00:26:33.763Z,0.00
2019-03-28T00:27:33.685Z,0.00
2019-03-28T00:28:33.683Z,0.00
2019-03-28T00:29:33.665Z,0.00
2019-03-28T00:30:33.668Z,0.00
2019-03-28T00:31:33.669Z,0.00
2019-03-28T00:32:33.632Z,0.00
2019-03-28T00:33:33.624Z,0.00
2019-03-28T00:34:33.606Z,0.00
2019-03-28T00:35:33.605Z,0.00
2019-03-28T00:36:33.605Z,0.00
2019-03-28T00:37:33.568Z,0.00
2019-03-28T00:38:33.564Z,0.00
2019-03-28T00:39:33.550Z,0.00
2019-03-28T00:40:33.546Z,0.00
2019-03-28T00:41:33.562Z,0.00
2019-03-28T00:42:33.526Z,0.00
2019-03-28T00:43:33.514Z,0.00
2019-03-28T00:44:33.504Z,0.00
2019-03-28T00:45:33.508Z,0.00
2019-03-28T00:46:33.499Z,0.00
2019-03-28T00:47:33.481Z,0.00
2019-03-28T00:48:33.451Z,0.00
2019-03-28T00:49:33.443Z,0.00
2019-03-28T00:50:34.401Z,0.00
2019-03-28T00:51:33.470Z,0.00
2019-03-28T00:52:33.408Z,0.00
2019-03-28T00:53:33.414Z,0.00
2019-03-28T00:54:33.395Z,0.00
2019-03-28T00:55:33.370Z,0.00
2019-03-28T00:56:44.947Z,0.00
2019-03-28T00:57:34.366Z,0.00
2019-03-28T00:58:34.161Z,0.00
2019-03-28T00:59:33.348Z,0.00
2019-03-28T01:00:33.319Z,0.00
2019-03-28T01:01:33.321Z,0.00
2019-03-28T01:02:33.316Z,0.00
2019-03-28T01:03:33.297Z,0.00
2019-03-28T01:04:33.299Z,0.00
2019-03-28T01:05:33.279Z,0.00
2019-03-28T01:06:33.259Z,0.00
2019-03-28T01:07:33.267Z,0.00
2019-03-28T01:08:33.229Z,0.00
2019-03-28T01:09:33.220Z,0.00
2019-03-28T01:10:33.212Z,0.00
2019-03-28T01:11:33.198Z,0.00
2019-03-28T01:12:33.208Z,0.00
2019-03-28T01:13:33.175Z,0.00
2019-03-28T01:14:33.296Z,0.00
2019-03-28T01:15:33.160Z,0.00
2019-03-28T01:16:33.150Z,0.00
2019-03-28T01:17:33.164Z,0.00
2019-03-28T01:18:33.133Z,0.00
2019-03-28T01:19:33.107Z,0.00
2019-03-28T01:20:33.106Z,0.00
2019-03-28T01:21:33.160Z,0.00
2019-03-28T01:22:33.097Z,0.00
2019-03-28T01:23:33.064Z,0.00
2019-03-28T01:24:33.063Z,0.00
2019-03-28T01:25:33.038Z,0.00
2019-03-28T01:26:33.045Z,0.00
2019-03-28T01:27:33.034Z,0.00
2019-03-28T01:28:33.011Z,0.00
2019-03-28T01:29:33.004Z,0.00
2019-03-28T01:30:32.981Z,0.00
2019-03-28T01:31:32.976Z,0.00
2019-03-28T01:32:32.998Z,0.00
2019-03-28T01:33:32.966Z,0.00
2019-03-28T01:34:33.220Z,0.00
2019-03-28T01:35:32.930Z,0.00
2019-03-28T01:36:32.932Z,0.00
2019-03-28T01:37:32.952Z,0.00
2019-03-28T01:38:32.912Z,0.00
2019-03-28T01:39:32.896Z,0.00
2019-03-28T01:40:32.878Z,0.00
2019-03-28T01:41:32.861Z,0.00
2019-03-28T01:42:32.888Z,0.00
2019-03-28T01:43:32.861Z,0.00
2019-03-28T01:44:32.842Z,0.00
2019-03-28T01:45:33.300Z,0.00
2019-03-28T01:46:32.816Z,0.00
2019-03-28T01:47:32.820Z,0.00
2019-03-28T01:48:33.195Z,0.00
2019-03-28T01:49:32.789Z,0.00
2019-03-28T01:50:32.773Z,0.00
2019-03-28T01:51:32.762Z,0.00
2019-03-28T01:52:32.759Z,0.00
2019-03-28T01:53:32.728Z,0.00
2019-03-28T01:54:32.715Z,0.00
2019-03-28T01:55:32.703Z,0.00
2019-03-28T01:56:32.707Z,0.00
2019-03-28T01:57:32.721Z,0.00
2019-03-28T01:58:32.669Z,0.00
2019-03-28T01:59:32.667Z,0.00
2019-03-28T02:00:32.649Z,0.00
2019-03-28T02:01:32.649Z,0.00
2019-03-28T02:02:32.633Z,0.00
2019-03-28T02:03:32.627Z,0.00
2019-03-28T02:04:32.611Z,0.00
2019-03-28T02:05:32.609Z,0.00
2019-03-28T02:06:32.589Z,0.00
2019-03-28T02:07:32.579Z,0.00
2019-03-28T02:08:32.585Z,0.00
2019-03-28T02:09:32.559Z,0.00
2019-03-28T02:10:32.561Z,0.00
2019-03-28T02:11:32.561Z,0.00
2019-03-28T02:12:32.529Z,0.00
2019-03-28T02:13:32.520Z,0.00
2019-03-28T02:14:32.502Z,0.00
2019-03-28T02:15:32.479Z,0.00
2019-03-28T02:16:32.475Z,0.00
2019-03-28T02:17:32.465Z,0.00
2019-03-28T02:18:32.467Z,0.00
2019-03-28T02:19:32.445Z,0.00
2019-03-28T02:20:32.449Z,0.00
2019-03-28T02:21:32.421Z,0.00
2019-03-28T02:22:32.446Z,0.00
2019-03-28T02:23:32.434Z,0.00
2019-03-28T02:24:32.396Z,0.00
2019-03-28T02:25:32.378Z,0.00
2019-03-28T02:26:32.375Z,0.00
2019-03-28T02:27:32.367Z,0.00
2019-03-28T02:28:32.368Z,0.00
2019-03-28T02:29:33.162Z,0.00
2019-03-28T02:30:32.335Z,0.00
2019-03-28T02:31:32.320Z,0.00
2019-03-28T02:32:33.052Z,0.00
2019-03-28T02:33:32.307Z,0.00
2019-03-28T02:34:32.281Z,0.00
2019-03-28T02:35:32.285Z,0.00
2019-03-28T02:36:32.256Z,0.00
2019-03-28T02:37:32.244Z,0.00
2019-03-28T02:38:32.422Z,0.00
2019-03-28T02:39:32.221Z,0.00
2019-03-28T02:40:32.217Z,0.00
2019-03-28T02:41:32.199Z,0.00
2019-03-28T02:42:32.188Z,0.00
2019-03-28T02:43:32.196Z,0.00
2019-03-28T02:44:32.176Z,0.00
2019-03-28T02:45:32.180Z,0.00
2019-03-28T02:46:32.151Z,0.00
2019-03-28T02:47:32.153Z,0.00
2019-03-28T02:48:32.146Z,0.00
2019-03-28T02:49:32.117Z,0.00
2019-03-28T02:50:32.121Z,0.00
2019-03-28T02:51:32.130Z,0.00
2019-03-28T02:52:32.089Z,0.00
2019-03-28T02:53:32.140Z,0.00
2019-03-28T02:54:32.057Z,0.00
2019-03-28T02:55:32.048Z,0.00
2019-03-28T02:56:32.038Z,0.00
2019-03-28T02:57:41.202Z,0.00
2019-03-28T02:58:33.024Z,0.00
2019-03-28T02:59:32.014Z,0.00
2019-03-28T03:00:31.994Z,0.00
2019-03-28T03:01:31.994Z,0.00
2019-03-28T03:02:32.467Z,0.00
2019-03-28T03:03:31.959Z,0.00
2019-03-28T03:04:31.969Z,0.00
2019-03-28T03:05:31.942Z,0.00
2019-03-28T03:06:31.920Z,0.00
2019-03-28T03:07:31.910Z,0.00
2019-03-28T03:08:31.905Z,0.00
2019-03-28T03:09:31.918Z,0.00
2019-03-28T03:10:31.901Z,0.00
2019-03-28T03:11:31.870Z,0.00
2019-03-28T03:12:31.885Z,0.00
2019-03-28T03:13:31.859Z,0.00
2019-03-28T03:14:31.884Z,0.00
2019-03-28T03:15:31.845Z,0.00
2019-03-28T03:16:31.808Z,0.00
2019-03-28T03:17:31.801Z,0.00
2019-03-28T03:18:31.798Z,0.00
2019-03-28T03:19:31.805Z,0.00
2019-03-28T03:20:31.780Z,0.00
2019-03-28T03:21:31.756Z,0.00
2019-03-28T03:22:31.756Z,0.00
2019-03-28T03:23:31.730Z,0.00
2019-03-28T03:24:31.725Z,0.00
2019-03-28T03:25:31.727Z,0.00
2019-03-28T03:26:31.714Z,0.00
2019-03-28T03:27:31.704Z,0.00
2019-03-28T03:28:31.676Z,0.00
2019-03-28T03:29:31.666Z,0.00
2019-03-28T03:30:32.231Z,0.00
2019-03-28T03:31:31.675Z,0.00
2019-03-28T03:32:31.650Z,0.00
2019-03-28T03:33:31.622Z,0.00
2019-03-28T03:34:32.951Z,0.00
2019-03-28T03:35:31.626Z,0.00
2019-03-28T03:36:31.597Z,0.00
2019-03-28T03:37:31.578Z,0.00
2019-03-28T03:38:31.584Z,0.00
2019-03-28T03:39:31.557Z,0.00
2019-03-28T03:40:31.562Z,0.00
2019-03-28T03:41:31.541Z,0.00
2019-03-28T03:42:31.534Z,0.00
2019-03-28T03:43:31.512Z,0.00
2019-03-28T03:44:31.497Z,0.00
2019-03-28T03:45:31.503Z,0.00
2019-03-28T03:46:31.477Z,0.00
2019-03-28T03:47:31.503Z,0.00
2019-03-28T03:48:31.464Z,0.00
2019-03-28T03:49:31.459Z,0.00
2019-03-28T03:50:31.465Z,0.00
2019-03-28T03:51:31.427Z,0.00
2019-03-28T03:52:31.419Z,0.00
2019-03-28T03:53:31.417Z,0.00
2019-03-28T03:54:31.457Z,0.00
2019-03-28T03:55:31.392Z,0.00
2019-03-28T03:56:31.374Z,0.00
2019-03-28T03:57:31.356Z,0.00
2019-03-28T03:58:31.354Z,0.00
2019-03-28T03:59:31.341Z,0.00
2019-03-28T04:00:31.345Z,0.00
2019-03-28T04:01:31.351Z,0.00
2019-03-28T04:02:31.317Z,0.00
2019-03-28T04:03:31.293Z,0.00
2019-03-28T04:04:31.285Z,0.00
2019-03-28T04:05:31.288Z,0.00
2019-03-28T04:06:31.276Z,0.00
2019-03-28T04:07:31.266Z,0.00
2019-03-28T04:08:31.242Z,0.00
2019-03-28T04:09:31.228Z,0.00
2019-03-28T04:10:31.238Z,0.00
2019-03-28T04:11:31.219Z,0.00
2019-03-28T04:12:31.191Z,0.00
2019-03-28T04:13:31.184Z,0.00
2019-03-28T04:14:31.199Z,0.00
2019-03-28T04:15:31.168Z,0.00
2019-03-28T04:16:31.147Z,0.00
2019-03-28T04:17:31.148Z,0.00
2019-03-28T04:18:31.131Z,0.00
2019-03-28T04:19:31.932Z,0.00
2019-03-28T04:20:31.115Z,0.00
2019-03-28T04:21:31.092Z,0.00
2019-03-28T04:22:31.089Z,0.00
2019-03-28T04:23:31.083Z,0.00
2019-03-28T04:24:31.061Z,0.00
2019-03-28T04:25:31.105Z,0.00
2019-03-28T04:26:31.703Z,0.00
2019-03-28T04:27:31.051Z,0.00
2019-03-28T04:28:32.671Z,0.00
2019-03-28T04:29:31.012Z,0.00
2019-03-28T04:30:30.999Z,0.00
2019-03-28T04:31:31.009Z,0.00
2019-03-28T04:32:30.984Z,0.00
2019-03-28T04:33:30.977Z,0.00
2019-03-28T04:34:30.962Z,0.00
2019-03-28T04:35:30.951Z,0.00
2019-03-28T04:36:30.948Z,0.00
2019-03-28T04:37:30.915Z,0.00
2019-03-28T04:38:30.910Z,4.00
2019-03-28T04:39:30.895Z,4.00
2019-03-28T04:40:30.898Z,0.00
2019-03-28T04:41:30.906Z,0.00
2019-03-28T04:42:30.870Z,4.00
2019-03-28T04:43:30.858Z,4.00
2019-03-28T04:44:30.855Z,4.00
2019-03-28T04:45:30.842Z,4.00
2019-03-28T04:46:30.843Z,4.00
2019-03-28T04:47:30.800Z,4.00
2019-03-28T04:48:30.791Z,4.00
2019-03-28T04:49:30.790Z,8.00
2019-03-28T04:50:30.775Z,8.00
2019-03-28T04:51:30.774Z,8.00
2019-03-28T04:52:32.027Z,12.00
2019-03-28T04:53:30.744Z,12.00
2019-03-28T04:54:30.721Z,8.00
2019-03-28T04:55:30.723Z,12.00
2019-03-28T04:56:30.720Z,12.00
2019-03-28T04:57:30.690Z,16.00
2019-03-28T04:58:43.484Z,16.00
2019-03-28T04:59:31.667Z,16.00
2019-03-28T05:00:30.673Z,20.00
2019-03-28T05:01:30.674Z,20.00
2019-03-28T05:02:31.321Z,24.00
2019-03-28T05:03:30.622Z,28.00
2019-03-28T05:04:30.647Z,28.00
2019-03-28T05:05:30.607Z,32.00
2019-03-28T05:06:30.623Z,36.00
2019-03-28T05:07:30.590Z,40.00
2019-03-28T05:08:30.585Z,40.00
2019-03-28T05:09:30.583Z,44.00
2019-03-28T05:10:33.031Z,44.00
2019-03-28T05:11:30.544Z,44.00
2019-03-28T05:12:30.559Z,44.00
2019-03-28T05:13:30.527Z,48.00
2019-03-28T05:14:30.509Z,52.00
2019-03-28T05:15:30.541Z,60.00
2019-03-28T05:16:30.498Z,64.00
2019-03-28T05:17:30.496Z,68.00
2019-03-28T05:18:30.466Z,64.00
2019-03-28T05:19:30.453Z,68.00
2019-03-28T05:20:30.449Z,64.00
2019-03-28T05:21:30.477Z,68.00
2019-03-28T05:22:30.447Z,64.00
2019-03-28T05:23:30.416Z,64.00
2019-03-28T05:24:30.404Z,64.00
2019-03-28T05:25:30.380Z,64.00
2019-03-28T05:26:30.379Z,72.00
2019-03-28T05:27:30.406Z,84.00
2019-03-28T05:28:30.358Z,76.00
2019-03-28T05:29:30.340Z,80.00
2019-03-28T05:30:30.332Z,92.00
2019-03-28T05:31:30.345Z,84.00
2019-03-28T05:32:30.322Z,76.00
2019-03-28T05:33:30.292Z,84.00
2019-03-28T05:34:30.291Z,84.00
2019-03-28T05:35:30.279Z,92.00
2019-03-28T05:36:30.271Z,92.00
2019-03-28T05:37:30.277Z,92.00
2019-03-28T05:38:30.267Z,92.00
2019-03-28T05:39:30.241Z,88.00
2019-03-28T05:40:30.221Z,92.00
2019-03-28T05:41:30.218Z,84.00
2019-03-28T05:42:30.226Z,92.00
2019-03-28T05:43:30.195Z,96.00
2019-03-28T05:44:30.180Z,104.00
2019-03-28T05:45:30.174Z,108.00
2019-03-28T05:46:30.154Z,108.00
2019-03-28T05:47:30.150Z,104.00
2019-03-28T05:48:30.130Z,116.00
2019-03-28T05:49:30.142Z,116.00
2019-03-28T05:50:30.136Z,120.00
2019-03-28T05:51:30.109Z,140.00
2019-03-28T05:52:30.105Z,140.00
2019-03-28T05:53:30.074Z,148.00
2019-03-28T05:54:30.063Z,136.00
2019-03-28T05:55:30.048Z,148.00
2019-03-28T05:56:30.042Z,148.00
2019-03-28T05:57:30.063Z,164.00
2019-03-28T05:58:30.030Z,152.00
2019-03-28T05:59:30.030Z,160.00
2019-03-28T06:00:29.995Z,180.00
2019-03-28T06:01:29.992Z,188.00
2019-03-28T06:02:29.979Z,200.00
2019-03-28T06:03:29.976Z,204.00
2019-03-28T06:04:29.962Z,180.00
2019-03-28T06:05:29.954Z,204.00
2019-03-28T06:06:29.936Z,192.00
2019-03-28T06:07:29.931Z,208.00
2019-03-28T06:08:29.923Z,232.00
2019-03-28T06:09:29.897Z,220.00
2019-03-28T06:10:29.955Z,236.00
2019-03-28T06:11:29.874Z,224.00
2019-03-28T06:12:29.860Z,216.00
2019-03-28T06:13:29.874Z,236.00
2019-03-28T06:14:29.868Z,252.00
2019-03-28T06:15:29.845Z,252.00
2019-03-28T06:16:29.832Z,228.00
2019-03-28T06:17:29.811Z,236.00
2019-03-28T06:18:29.836Z,232.00
2019-03-28T06:19:29.813Z,208.00
2019-03-28T06:20:30.235Z,236.00
2019-03-28T06:21:29.771Z,264.00
2019-03-28T06:22:29.767Z,256.00
2019-03-28T06:23:29.782Z,268.00
2019-03-28T06:24:29.729Z,268.00
2019-03-28T06:25:29.740Z,300.00
2019-03-28T06:26:29.715Z,272.00
2019-03-28T06:27:29.699Z,264.00
2019-03-28T06:28:29.719Z,288.00
2019-03-28T06:29:29.673Z,252.00
2019-03-28T06:30:29.672Z,268.00
2019-03-28T06:31:29.658Z,264.00
2019-03-28T06:32:42.339Z,300.00
2019-03-28T06:33:30.665Z,292.00
2019-03-28T06:34:29.627Z,284.00
2019-03-28T06:35:29.617Z,320.00
2019-03-28T06:36:29.595Z,328.00
2019-03-28T06:37:29.601Z,324.00
2019-03-28T06:38:29.643Z,328.00
2019-03-28T06:39:29.570Z,328.00
2019-03-28T06:40:29.556Z,336.00
2019-03-28T06:41:29.538Z,408.00
2019-03-28T06:42:29.548Z,380.00
2019-03-28T06:43:29.523Z,396.00
2019-03-28T06:44:29.523Z,380.00
2019-03-28T06:45:29.515Z,380.00
2019-03-28T06:46:29.480Z,392.00
2019-03-28T06:47:29.478Z,400.00
2019-03-28T06:48:29.467Z,372.00
2019-03-28T06:49:29.475Z,452.00
2019-03-28T06:50:29.462Z,396.00
2019-03-28T06:51:29.431Z,388.00
2019-03-28T06:52:29.437Z,440.00
2019-03-28T06:53:29.404Z,420.00
2019-03-28T06:54:30.553Z,512.00
2019-03-28T06:55:29.398Z,492.00
2019-03-28T06:56:29.396Z,488.00
2019-03-28T06:57:29.477Z,512.00
2019-03-28T06:58:29.363Z,656.00
2019-03-28T06:59:37.268Z,736.00
2019-03-28T07:00:30.344Z,628.00
2019-03-28T07:01:29.335Z,648.00
2019-03-28T07:02:29.334Z,656.00
2019-03-28T07:03:29.298Z,612.00
2019-03-28T07:04:30.245Z,668.00
2019-03-28T07:05:29.328Z,584.00
2019-03-28T07:06:29.266Z,520.00
2019-03-28T07:07:29.269Z,560.00
2019-03-28T07:08:29.240Z,572.00
2019-03-28T07:09:29.255Z,612.00
2019-03-28T07:10:29.224Z,616.00
2019-03-28T07:11:29.218Z,568.00
2019-03-28T07:12:29.202Z,620.00
2019-03-28T07:13:29.220Z,540.00
2019-03-28T07:14:29.207Z,604.00
2019-03-28T07:15:29.173Z,672.00
2019-03-28T07:16:29.153Z,580.00
2019-03-28T07:17:29.144Z,640.00
2019-03-28T07:18:29.136Z,632.00
2019-03-28T07:19:29.156Z,612.00
2019-03-28T07:20:29.109Z,572.00
2019-03-28T07:21:29.109Z,536.00
2019-03-28T07:22:29.126Z,576.00
2019-03-28T07:23:29.075Z,548.00
2019-03-28T07:24:29.094Z,536.00
2019-03-28T07:25:29.055Z,624.00
2019-03-28T07:26:29.042Z,640.00
2019-03-28T07:27:29.039Z,584.00
2019-03-28T07:28:29.016Z,616.00
2019-03-28T07:29:29.019Z,576.00
2019-03-28T07:30:29.005Z,664.00
2019-03-28T07:31:28.989Z,624.00
2019-03-28T07:32:28.973Z,728.00
2019-03-28T07:33:28.966Z,660.00
2019-03-28T07:34:29.012Z,724.00
2019-03-28T07:35:28.947Z,652.00
2019-03-28T07:36:28.965Z,712.00
2019-03-28T07:37:29.008Z,736.00
2019-03-28T07:38:28.928Z,600.00
2019-03-28T07:39:28.919Z,584.00
2019-03-28T07:40:28.892Z,560.00
2019-03-28T07:41:28.884Z,704.00
2019-03-28T07:42:28.861Z,648.00
2019-03-28T07:43:28.861Z,640.00
2019-03-28T07:44:28.888Z,656.00
2019-03-28T07:45:28.839Z,700.00
2019-03-28T07:46:28.830Z,836.00
2019-03-28T07:47:28.820Z,916.00
2019-03-28T07:48:28.800Z,788.00
2019-03-28T07:49:28.795Z,944.00
2019-03-28T07:50:28.807Z,824.00
2019-03-28T07:51:28.779Z,684.00
2019-03-28T07:52:28.767Z,708.00
2019-03-28T07:53:28.757Z,856.00
2019-03-28T07:54:28.736Z,888.00
2019-03-28T07:55:28.744Z,944.00
2019-03-28T07:56:28.743Z,904.00
2019-03-28T07:57:28.703Z,1044.00
2019-03-28T07:58:28.701Z,1224.00
2019-03-28T07:59:28.699Z,1092.00
2019-03-28T08:00:28.682Z,1036.00
2019-03-28T08:01:28.665Z,936.00
2019-03-28T08:02:28.699Z,1408.00
2019-03-28T08:03:28.654Z,1088.00
2019-03-28T08:04:28.636Z,1184.00
2019-03-28T08:05:28.636Z,1416.00
2019-03-28T08:06:28.623Z,1364.00
2019-03-28T08:07:28.592Z,1148.00
2019-03-28T08:08:38.311Z,1300.00
2019-03-28T08:09:36.647Z,1396.00
2019-03-28T08:10:29.582Z,1608.00
2019-03-28T08:11:28.650Z,1220.00
2019-03-28T08:12:28.575Z,1332.00
2019-03-28T08:13:28.520Z,1224.00
2019-03-28T08:14:28.582Z,1136.00
2019-03-28T08:15:28.527Z,1268.00
2019-03-28T08:16:28.986Z,1216.00
2019-03-28T08:17:28.554Z,1296.00
2019-03-28T08:18:28.486Z,1424.00
2019-03-28T08:19:28.494Z,1328.00
2019-03-28T08:20:28.482Z,1012.00
2019-03-28T08:21:28.442Z,1080.00
2019-03-28T08:22:29.831Z,920.00
2019-03-28T08:23:28.431Z,900.00
2019-03-28T08:24:28.428Z,752.00
2019-03-28T08:25:28.438Z,760.00
2019-03-28T08:26:30.292Z,624.00
2019-03-28T08:27:28.375Z,632.00
2019-03-28T08:28:28.402Z,708.00
2019-03-28T08:29:28.347Z,728.00
2019-03-28T08:30:28.354Z,696.00
2019-03-28T08:31:28.352Z,628.00
2019-03-28T08:32:28.310Z,664.00
2019-03-28T08:33:28.306Z,696.00
2019-03-28T08:34:31.151Z,932.00
2019-03-28T08:35:28.298Z,1112.00
2019-03-28T08:36:28.270Z,960.00
2019-03-28T08:37:28.297Z,1076.00
2019-03-28T08:38:28.251Z,1012.00
2019-03-28T08:39:28.591Z,1300.00
2019-03-28T08:40:28.260Z,1116.00
2019-03-28T08:41:28.225Z,1180.00
2019-03-28T08:42:28.210Z,1224.00
2019-03-28T08:43:28.220Z,1240.00
2019-03-28T08:44:28.176Z,1236.00
2019-03-28T08:45:28.192Z,1260.00
2019-03-28T08:46:28.165Z,1056.00
2019-03-28T08:47:28.148Z,1032.00
2019-03-28T08:48:28.130Z,860.00
2019-03-28T08:49:28.132Z,1092.00
2019-03-28T08:50:28.127Z,968.00
2019-03-28T08:51:28.127Z,932.00
2019-03-28T08:52:28.093Z,956.00
2019-03-28T08:53:28.093Z,916.00
2019-03-28T08:54:28.070Z,736.00
2019-03-28T08:55:28.062Z,720.00
2019-03-28T08:56:28.076Z,884.00
2019-03-28T08:57:28.049Z,968.00
2019-03-28T08:58:28.034Z,916.00
2019-03-28T08:59:28.029Z,844.00
2019-03-28T09:00:35.090Z,864.00
2019-03-28T09:01:29.000Z,992.00
2019-03-28T09:02:27.982Z,900.00
2019-03-28T09:03:27.980Z,828.00
2019-03-28T09:04:27.971Z,1012.00
2019-03-28T09:05:27.946Z,1216.00
2019-03-28T09:06:27.959Z,1184.00
2019-03-28T09:07:27.926Z,1292.00
2019-03-28T09:08:27.916Z,1548.00
2019-03-28T09:09:27.912Z,1884.00
2019-03-28T09:10:27.903Z,1740.00
2019-03-28T09:11:27.914Z,1584.00
2019-03-28T09:12:27.869Z,1568.00
2019-03-28T09:13:27.861Z,1116.00
2019-03-28T09:14:27.847Z,1152.00
2019-03-28T09:15:27.831Z,1112.00
2019-03-28T09:16:27.844Z,1112.00
2019-03-28T09:17:27.804Z,1092.00
2019-03-28T09:18:27.796Z,1072.00
2019-03-28T09:19:27.807Z,1068.00
2019-03-28T09:20:27.785Z,1120.00
2019-03-28T09:21:27.806Z,1148.00
2019-03-28T09:22:27.772Z,1016.00
2019-03-28T09:23:27.743Z,860.00
2019-03-28T09:24:27.739Z,840.00
2019-03-28T09:25:27.739Z,832.00
2019-03-28T09:26:27.742Z,796.00
2019-03-28T09:27:27.714Z,884.00
2019-03-28T09:28:27.703Z,912.00
2019-03-28T09:29:27.683Z,884.00
2019-03-28T09:30:27.692Z,840.00
2019-03-28T09:31:27.702Z,828.00
2019-03-28T09:32:27.668Z,888.00
2019-03-28T09:33:27.648Z,940.00
2019-03-28T09:34:27.634Z,1312.00
2019-03-28T09:35:28.396Z,1508.00
2019-03-28T09:36:27.629Z,1632.00
2019-03-28T09:37:27.727Z,1396.00
2019-03-28T09:38:27.595Z,1328.00
2019-03-28T09:39:27.581Z,1444.00
2019-03-28T09:40:27.576Z,1768.00
2019-03-28T09:41:27.565Z,2096.00
2019-03-28T09:42:27.629Z,1824.00
2019-03-28T09:43:27.529Z,1516.00
2019-03-28T09:44:27.505Z,1436.00
2019-03-28T09:45:27.502Z,1256.00
2019-03-28T09:46:27.504Z,1560.00
2019-03-28T09:47:27.487Z,1500.00
2019-03-28T09:48:27.476Z,1900.00
2019-03-28T09:49:27.470Z,1992.00
2019-03-28T09:50:27.454Z,2492.00
2019-03-28T09:51:27.476Z,2496.00
2019-03-28T09:52:27.462Z,2200.00
2019-03-28T09:53:27.433Z,1516.00
2019-03-28T09:54:27.433Z,1152.00
2019-03-28T09:55:27.398Z,1576.00
2019-03-28T09:56:27.381Z,1576.00
2019-03-28T09:57:27.389Z,1112.00
2019-03-28T09:58:27.368Z,1012.00
2019-03-28T09:59:27.344Z,1160.00
2019-03-28T10:00:27.344Z,1204.00
2019-03-28T10:01:27.339Z,1444.00
2019-03-28T10:02:27.358Z,1440.00
2019-03-28T10:03:27.332Z,1172.00
2019-03-28T10:04:27.306Z,996.00
2019-03-28T10:05:27.276Z,980.00
2019-03-28T10:06:27.284Z,1120.00
2019-03-28T10:07:27.294Z,1188.00
2019-03-28T10:08:27.258Z,1276.00
2019-03-28T10:09:27.241Z,1408.00
2019-03-28T10:10:27.243Z,1488.00
2019-03-28T10:11:27.286Z,1596.00
2019-03-28T10:12:27.245Z,1684.00
2019-03-28T10:13:27.193Z,1688.00
2019-03-28T10:14:27.188Z,1928.00
2019-03-28T10:15:27.167Z,1876.00
2019-03-28T10:16:27.184Z,2124.00
2019-03-28T10:17:27.404Z,2496.00
2019-03-28T10:18:29.939Z,2592.00
2019-03-28T10:19:27.231Z,2712.00
2019-03-28T10:20:27.117Z,2708.00
2019-03-28T10:21:27.118Z,2532.00
2019-03-28T10:22:27.133Z,2588.00
2019-03-28T10:23:27.081Z,2652.00
2019-03-28T10:24:27.094Z,2600.00
2019-03-28T10:25:27.059Z,2656.00
2019-03-28T10:26:27.070Z,2732.00
2019-03-28T10:27:27.072Z,2804.00
2019-03-28T10:28:27.038Z,2744.00
2019-03-28T10:29:27.023Z,2536.00
2019-03-28T10:30:27.000Z,2200.00
2019-03-28T10:31:26.989Z,1844.00
2019-03-28T10:32:27.009Z,1612.00
2019-03-28T10:33:26.975Z,1412.00
2019-03-28T10:34:26.982Z,1284.00
2019-03-28T10:35:26.955Z,928.00
2019-03-28T10:36:27.957Z,984.00
2019-03-28T10:37:26.967Z,1148.00
2019-03-28T10:38:26.920Z,1196.00
2019-03-28T10:39:26.912Z,1124.00
2019-03-28T10:40:26.906Z,960.00
2019-03-28T10:41:26.914Z,908.00
2019-03-28T10:42:26.889Z,932.00
2019-03-28T10:43:26.881Z,856.00
2019-03-28T10:44:26.845Z,820.00
2019-03-28T10:45:26.848Z,928.00
2019-03-28T10:46:26.818Z,920.00
2019-03-28T10:47:27.450Z,852.00
2019-03-28T10:48:26.803Z,836.00
2019-03-28T10:49:26.807Z,928.00
2019-03-28T10:50:40.395Z,844.00
2019-03-28T10:51:27.769Z,756.00
2019-03-28T10:52:26.797Z,716.00
2019-03-28T10:53:29.911Z,664.00
2019-03-28T10:54:26.843Z,632.00
2019-03-28T10:55:26.733Z,680.00
2019-03-28T10:56:26.728Z,728.00
2019-03-28T10:57:30.285Z,816.00
2019-03-28T10:58:26.710Z,844.00
2019-03-28T10:59:26.680Z,924.00
2019-03-28T11:00:26.667Z,960.00
2019-03-28T11:01:47.094Z,956.00
2019-03-28T11:02:28.914Z,964.00
2019-03-28T11:03:26.668Z,848.00
2019-03-28T11:04:26.626Z,860.00
2019-03-28T11:05:26.631Z,860.00
2019-03-28T11:06:26.631Z,836.00
2019-03-28T11:07:26.599Z,820.00
2019-03-28T11:08:26.592Z,840.00
2019-03-28T11:09:26.573Z,876.00
2019-03-28T11:10:27.730Z,908.00
2019-03-28T11:11:26.556Z,960.00
2019-03-28T11:12:26.541Z,988.00
2019-03-28T11:13:26.571Z,1008.00
2019-03-28T11:14:26.519Z,924.00
2019-03-28T11:15:26.510Z,1124.00
2019-03-28T11:16:26.495Z,1268.00
2019-03-28T11:17:26.509Z,1276.00
2019-03-28T11:18:26.484Z,1088.00
2019-03-28T11:19:26.456Z,916.00
2019-03-28T11:20:26.480Z,852.00
2019-03-28T11:21:26.433Z,828.00
2019-03-28T11:22:26.430Z,768.00
2019-03-28T11:23:26.450Z,760.00
2019-03-28T11:24:26.415Z,800.00
2019-03-28T11:25:26.394Z,816.00
2019-03-28T11:26:26.391Z,804.00
2019-03-28T11:27:26.368Z,840.00
2019-03-28T11:28:26.381Z,876.00
2019-03-28T11:29:26.355Z,980.00
2019-03-28T11:30:26.345Z,1228.00
2019-03-28T11:31:26.329Z,1908.00
2019-03-28T11:32:26.313Z,2288.00
2019-03-28T11:33:26.306Z,1884.00
2019-03-28T11:34:26.316Z,1756.00
2019-03-28T11:35:26.281Z,1708.00
2019-03-28T11:36:26.276Z,1612.00
2019-03-28T11:37:26.830Z,1312.00
2019-03-28T11:38:26.248Z,996.00
2019-03-28T11:39:26.254Z,860.00
2019-03-28T11:40:26.229Z,796.00
2019-03-28T11:41:26.216Z,816.00
2019-03-28T11:42:26.200Z,844.00
2019-03-28T11:43:26.196Z,800.00
2019-03-28T11:44:26.203Z,740.00
2019-03-28T11:45:27.166Z,712.00
2019-03-28T11:46:26.163Z,700.00
2019-03-28T11:47:26.155Z,676.00
2019-03-28T11:48:26.147Z,660.00
2019-03-28T11:49:27.062Z,644.00
2019-03-28T11:50:26.119Z,640.00
2019-03-28T11:51:26.119Z,616.00
2019-03-28T11:52:26.107Z,612.00
2019-03-28T11:53:26.090Z,608.00
2019-03-28T11:54:26.107Z,624.00
2019-03-28T11:55:26.053Z,660.00
2019-03-28T11:56:26.149Z,632.00
2019-03-28T11:57:26.045Z,612.00
2019-03-28T11:58:26.049Z,608.00
2019-03-28T11:59:26.050Z,632.00
2019-03-28T12:00:26.001Z,668.00
2019-03-28T12:01:25.998Z,620.00
2019-03-28T12:02:25.997Z,616.00
2019-03-28T12:03:25.975Z,644.00
2019-03-28T12:04:25.988Z,668.00
2019-03-28T12:05:25.948Z,672.00
2019-03-28T12:06:25.948Z,680.00
2019-03-28T12:07:25.932Z,696.00
2019-03-28T12:08:25.939Z,704.00
2019-03-28T12:09:25.965Z,692.00
2019-03-28T12:10:45.053Z,648.00
2019-03-28T12:11:25.879Z,656.00
2019-03-28T12:12:25.869Z,664.00
2019-03-28T12:13:25.865Z,628.00
2019-03-28T12:14:25.869Z,684.00
2019-03-28T12:15:26.039Z,708.00
2019-03-28T12:16:25.823Z,912.00
2019-03-28T12:17:25.806Z,992.00
2019-03-28T12:18:25.807Z,920.00
2019-03-28T12:19:25.826Z,852.00
2019-03-28T12:20:25.915Z,888.00
2019-03-28T12:21:25.783Z,892.00
2019-03-28T12:22:25.783Z,944.00
2019-03-28T12:23:25.749Z,852.00
2019-03-28T12:24:25.738Z,804.00
2019-03-28T12:25:25.753Z,752.00
2019-03-28T12:26:25.737Z,768.00
2019-03-28T12:27:25.701Z,848.00
2019-03-28T12:28:25.709Z,1060.00
2019-03-28T12:29:25.714Z,1040.00
2019-03-28T12:30:25.697Z,1132.00
2019-03-28T12:31:25.672Z,1132.00
2019-03-28T12:32:25.670Z,1080.00
2019-03-28T12:33:25.693Z,1076.00
2019-03-28T12:34:25.682Z,1152.00
2019-03-28T12:35:25.691Z,1164.00
2019-03-28T12:36:25.603Z,1056.00
2019-03-28T12:37:25.598Z,1132.00
2019-03-28T12:38:25.583Z,1064.00
2019-03-28T12:39:25.576Z,1028.00
2019-03-28T12:40:25.668Z,1004.00
2019-03-28T12:41:25.558Z,980.00
2019-03-28T12:42:25.544Z,884.00
2019-03-28T12:43:25.542Z,804.00